• Join FlightAware (Why Join?)
  • Login
  • US Flag 
11:59PM EDT


 

Airport Tracker/Info


-or-


 

Live Flight TrackerFlight Track Log ✈ N897MB ✈ 06-Feb-2014 ✈ KFLO - 8A6

Flight Track Log - Related Links

Times and Time Zones

All times are in EST time to prevent confusion due to time zone crossing. See the N897MB flight status page for this flight to view local times or setup timezone preferences in your user account.

Time Position Orientation Groundspeed Altitude Reporting Facility
EST Latitude Longitude Course Direction KTS MPH feet Rate Location/Type
03:28PM 34.3258 -79.8536 323° Northwest  Level FlightAware Approximate
03:29PM 34.3547 -79.8804 323° Northwest  Level FlightAware Approximate
03:30PM 34.3836 -79.9073 323° Northwest  Level FlightAware Approximate
03:31PM 34.4124 -79.9342 322° Northwest  Level FlightAware Approximate
03:32PM 34.4413 -79.9610 322° Northwest  Level FlightAware Approximate
03:33PM 34.4702 -79.9879 322° Northwest  Level FlightAware Approximate
03:34PM 34.4990 -80.0148 322° Northwest  Level FlightAware Approximate
03:35PM 34.5279 -80.0418 322° Northwest  Level FlightAware Approximate
03:36PM 34.5567 -80.0687 322° Northwest  Level FlightAware Approximate
03:37PM 34.5855 -80.0957 322° Northwest  Level FlightAware Approximate
03:38PM 34.6144 -80.1227 322° Northwest  Level FlightAware Approximate
03:39PM 34.6432 -80.1497 322° Northwest  Level FlightAware Approximate
03:40PM 34.6720 -80.1767 322° Northwest  Level FlightAware Approximate
03:41PM 34.7008 -80.2038 322° Northwest  Level FlightAware Approximate
03:42PM 34.7296 -80.2309 322° Northwest  Level FlightAware Approximate
03:43PM 34.7586 -80.2578 323° Northwest  Level FlightAware Approximate
03:44PM 34.7877 -80.2843 323° Northwest  Level FlightAware Approximate
03:45PM 34.8169 -80.3108 323° Northwest  Level FlightAware Approximate
03:46PM 34.8461 -80.3373 323° Northwest  Level FlightAware Approximate
03:47PM 34.8752 -80.3639 323° Northwest  Level FlightAware Approximate
03:48PM 34.9044 -80.3905 323° Northwest  Level FlightAware Approximate
03:49PM 34.9335 -80.4171 323° Northwest  Level FlightAware Approximate
03:50PM 34.9627 -80.4437 323° Northwest  Level FlightAware Approximate
03:51PM 34.9918 -80.4703 323° Northwest  Level FlightAware Approximate
03:51PM 34.6467 -80.2767 321° Northwest 110 127 2,600  Level Atlanta Center
03:52PM 35.0209 -80.4969 323° Northwest  Level FlightAware Approximate
03:52PM 34.6658 -80.2911 328° Northwest 96 110 2,600  Level Atlanta Center
03:53PM 35.0500 -80.5236 323° Northwest  Level FlightAware Approximate
03:53PM 34.6914 -80.3100 329° Northwest 97 112 2,700  Level Atlanta Center
03:54PM 35.0792 -80.5503 323° Northwest  Level FlightAware Approximate
03:54PM 34.7131 -80.3319 320° Northwest 103 119 2,500  Level Atlanta Center
03:55PM 35.1083 -80.5770 323° Northwest  Level FlightAware Approximate
03:55PM 34.7408 -80.3558 325° Northwest 97 112 2,500  Level Atlanta Center
03:56PM 35.1373 -80.6039 321° Northwest  Level FlightAware Approximate
03:56PM 34.7600 -80.3703 328° Northwest 96 110 2,600  Level Atlanta Center
03:57PM 35.1654 -80.6321 321° Northwest  Level FlightAware Approximate
03:57PM 34.7833 -80.3844 333° Northwest 98 113 2,600  Level Atlanta Center
03:58PM 34.8089 -80.4033 329° Northwest 99 114 2,600  Level Atlanta Center
03:59PM 34.8322 -80.4178 333° Northwest 98 113 2,600  Level Atlanta Center
04:00PM 34.8578 -80.4317 336° Northwest 95 109 2,600  Level Atlanta Center
04:01PM 34.8872 -80.4431 342° North 98 113 2,600  Level Atlanta Center
04:03PM 34.9108 -80.4572 334° Northwest 99 114 2,600  Level Atlanta Center
04:04PM 34.9361 -80.4714 335° Northwest 98 113 2,600  Level Atlanta Center
04:04PM 34.9575 -80.4858 331° Northwest 95 109 2,600  Level Atlanta Center
04:06PM 34.9769 -80.5103 314° West 100 115 2,600  Level Atlanta Center
04:07PM 35.0025 -80.5319 325° Northwest 101 116 2,600 -60 Level Atlanta Center
04:08PM 35.0200 -80.5567 311° West 101 116 2,500  Descending Atlanta Center
04:09PM 35.0394 -80.5786 317° Northwest 98 113 2,600 60 Climbing Atlanta Center